sensor_id;sensor_type;location;lat;lon;timestamp;pressure;altitude;pressure_sealevel;temperature;humidity
49393;BME280;35268;42.642;23.308;2023-03-14T00:02:16;94121.06;;;2.61;50.56
49393;BME280;35268;42.642;23.308;2023-03-14T00:04:41;94117.09;;;2.58;50.96
49393;BME280;35268;42.642;23.308;2023-03-14T00:07:07;94111.81;;;2.53;51.33
49393;BME280;35268;42.642;23.308;2023-03-14T00:09:33;94105.50;;;2.49;51.65
49393;BME280;35268;42.642;23.308;2023-03-14T00:11:58;94110.22;;;2.47;51.86
49393;BME280;35268;42.642;23.308;2023-03-14T00:14:24;94109.69;;;2.45;51.49
49393;BME280;35268;42.642;23.308;2023-03-14T00:16:49;94102.56;;;2.40;51.72
49393;BME280;35268;42.642;23.308;2023-03-14T00:19:15;94093.31;;;2.38;52.15
49393;BME280;35268;42.642;23.308;2023-03-14T00:21:40;94090.44;;;2.39;52.26
49393;BME280;35268;42.642;23.308;2023-03-14T00:24:07;94082.84;;;2.43;52.36
49393;BME280;35268;42.642;23.308;2023-03-14T00:26:32;94081.22;;;2.42;52.38
49393;BME280;35268;42.642;23.308;2023-03-14T00:28:57;94081.50;;;2.40;52.54
49393;BME280;35268;42.642;23.308;2023-03-14T00:31:23;94065.72;;;2.40;53.41
49393;BME280;35268;42.642;23.308;2023-03-14T00:33:51;94069.91;;;2.36;52.99
49393;BME280;35268;42.642;23.308;2023-03-14T00:36:17;94063.84;;;2.36;52.61
49393;BME280;35268;42.642;23.308;2023-03-14T00:38:44;94070.69;;;2.37;52.09
49393;BME280;35268;42.642;23.308;2023-03-14T00:41:13;94065.94;;;2.34;51.44
49393;BME280;35268;42.642;23.308;2023-03-14T00:43:39;94062.75;;;2.27;51.41
49393;BME280;35268;42.642;23.308;2023-03-14T00:46:05;94055.91;;;2.20;51.79
49393;BME280;35268;42.642;23.308;2023-03-14T00:48:31;94059.31;;;2.21;52.00
49393;BME280;35268;42.642;23.308;2023-03-14T00:50:57;94058.00;;;2.24;52.13
49393;BME280;35268;42.642;23.308;2023-03-14T00:53:22;94068.03;;;2.27;51.96
49393;BME280;35268;42.642;23.308;2023-03-14T00:55:49;94065.34;;;2.21;52.54
49393;BME280;35268;42.642;23.308;2023-03-14T00:58:16;94061.16;;;2.20;52.80
49393;BME280;35268;42.642;23.308;2023-03-14T01:00:42;94056.19;;;2.24;52.85
49393;BME280;35268;42.642;23.308;2023-03-14T01:03:09;94051.66;;;2.19;52.16
49393;BME280;35268;42.642;23.308;2023-03-14T01:05:35;94054.53;;;2.13;52.39
49393;BME280;35268;42.642;23.308;2023-03-14T01:08:01;94054.25;;;2.09;52.92
49393;BME280;35268;42.642;23.308;2023-03-14T01:10:26;94054.28;;;2.14;52.72
49393;BME280;35268;42.642;23.308;2023-03-14T01:12:52;94051.66;;;2.14;52.67
49393;BME280;35268;42.642;23.308;2023-03-14T01:15:18;94045.88;;;2.12;52.99
49393;BME280;35268;42.642;23.308;2023-03-14T01:17:43;94038.47;;;2.09;53.73
49393;BME280;35268;42.642;23.308;2023-03-14T01:20:11;94039.78;;;2.07;54.32
49393;BME280;35268;42.642;23.308;2023-03-14T01:22:38;94034.53;;;2.07;54.32
49393;BME280;35268;42.642;23.308;2023-03-14T01:25:06;94025.81;;;2.01;54.64
49393;BME280;35268;42.642;23.308;2023-03-14T01:27:32;94024.75;;;1.97;54.74
49393;BME280;35268;42.642;23.308;2023-03-14T01:29:58;94030.00;;;1.97;54.69
49393;BME280;35268;42.642;23.308;2023-03-14T01:32:24;94031.59;;;1.98;54.87
49393;BME280;35268;42.642;23.308;2023-03-14T01:34:50;94023.66;;;1.93;54.93
49393;BME280;35268;42.642;23.308;2023-03-14T01:37:16;94025.75;;;1.91;54.74
49393;BME280;35268;42.642;23.308;2023-03-14T01:39:42;94026.00;;;1.89;54.95
49393;BME280;35268;42.642;23.308;2023-03-14T01:42:07;94021.50;;;1.85;55.02
49393;BME280;35268;42.642;23.308;2023-03-14T01:44:53;94021.22;;;1.81;55.36
49393;BME280;35268;42.642;23.308;2023-03-14T01:47:19;94014.66;;;1.78;55.25
49393;BME280;35268;42.642;23.308;2023-03-14T01:49:46;94010.44;;;1.77;54.99
49393;BME280;35268;42.642;23.308;2023-03-14T01:52:37;94013.09;;;1.83;55.75
49393;BME280;35268;42.642;23.308;2023-03-14T01:55:09;94017.53;;;1.77;54.46
49393;BME280;35268;42.642;23.308;2023-03-14T01:57:39;94000.41;;;1.69;54.54
49393;BME280;35268;42.642;23.308;2023-03-14T02:00:12;94007.72;;;1.62;54.10
49393;BME280;35268;42.642;23.308;2023-03-14T02:02:47;94009.44;;;1.46;54.45
49393;BME280;35268;42.642;23.308;2023-03-14T02:05:18;93994.31;;;1.26;55.38
49393;BME280;35268;42.642;23.308;2023-03-14T02:07:53;93999.56;;;1.26;55.18
49393;BME280;35268;42.642;23.308;2023-03-14T02:10:21;94004.28;;;1.24;55.48
49393;BME280;35268;42.642;23.308;2023-03-14T02:12:48;94000.09;;;1.23;55.98
49393;BME280;35268;42.642;23.308;2023-03-14T02:15:14;93990.72;;;1.32;55.93
49393;BME280;35268;42.642;23.308;2023-03-14T02:17:42;93992.03;;;1.35;56.29
49393;BME280;35268;42.642;23.308;2023-03-14T02:22:44;93998.09;;;1.35;56.98
49393;BME280;35268;42.642;23.308;2023-03-14T02:27:48;93984.72;;;1.37;57.42
49393;BME280;35268;42.642;23.308;2023-03-14T02:30:21;93994.16;;;1.38;57.90
49393;BME280;35268;42.642;23.308;2023-03-14T02:32:49;93987.56;;;1.35;57.61
49393;BME280;35268;42.642;23.308;2023-03-14T02:35:22;93984.41;;;1.33;57.73
49393;BME280;35268;42.642;23.308;2023-03-14T02:37:54;93991.53;;;1.38;57.83
49393;BME280;35268;42.642;23.308;2023-03-14T02:40:20;93996.78;;;1.38;57.48
49393;BME280;35268;42.642;23.308;2023-03-14T02:42:46;94004.94;;;1.36;57.27
49393;BME280;35268;42.642;23.308;2023-03-14T02:47:40;94004.94;;;1.36;56.67
49393;BME280;35268;42.642;23.308;2023-03-14T02:50:13;93990.44;;;1.34;57.05
49393;BME280;35268;42.642;23.308;2023-03-14T02:52:40;93993.88;;;1.34;56.94
49393;BME280;35268;42.642;23.308;2023-03-14T02:55:05;94002.03;;;1.38;56.87
49393;BME280;35268;42.642;23.308;2023-03-14T02:57:31;94010.22;;;1.42;56.55
49393;BME280;35268;42.642;23.308;2023-03-14T03:00:00;94008.09;;;1.38;56.48
49393;BME280;35268;42.642;23.308;2023-03-14T03:02:29;94008.03;;;1.33;56.51
49393;BME280;35268;42.642;23.308;2023-03-14T03:04:54;94008.34;;;1.37;56.71
49393;BME280;35268;42.642;23.308;2023-03-14T03:07:20;94009.38;;;1.36;56.77
49393;BME280;35268;42.642;23.308;2023-03-14T03:09:46;94007.03;;;1.34;56.48
49393;BME280;35268;42.642;23.308;2023-03-14T03:12:11;94008.81;;;1.29;56.63
49393;BME280;35268;42.642;23.308;2023-03-14T03:14:37;94001.97;;;1.28;56.50
49393;BME280;35268;42.642;23.308;2023-03-14T03:17:04;94004.81;;;1.26;56.53
49393;BME280;35268;42.642;23.308;2023-03-14T03:19:30;94000.63;;;1.25;56.01
49393;BME280;35268;42.642;23.308;2023-03-14T03:21:55;93994.31;;;1.26;55.32
49393;BME280;35268;42.642;23.308;2023-03-14T03:24:21;93992.22;;;1.23;55.13
49393;BME280;35268;42.642;23.308;2023-03-14T03:26:46;94001.41;;;1.20;55.04
49393;BME280;35268;42.642;23.308;2023-03-14T03:29:12;93991.59;;;1.11;55.36
49393;BME280;35268;42.642;23.308;2023-03-14T03:31:38;94005.47;;;1.06;55.64
49393;BME280;35268;42.642;23.308;2023-03-14T03:34:04;93998.63;;;1.05;55.84
49393;BME280;35268;42.642;23.308;2023-03-14T03:36:29;93997.59;;;1.06;55.96
49393;BME280;35268;42.642;23.308;2023-03-14T03:38:55;93993.16;;;1.12;55.92
49393;BME280;35268;42.642;23.308;2023-03-14T03:41:20;93991.63;;;1.16;55.92
49393;BME280;35268;42.642;23.308;2023-03-14T03:43:46;93991.66;;;1.21;55.79
49393;BME280;35268;42.642;23.308;2023-03-14T03:46:11;93989.59;;;1.23;55.87
49393;BME280;35268;42.642;23.308;2023-03-14T03:48:37;94004.81;;;1.21;55.90
49393;BME280;35268;42.642;23.308;2023-03-14T03:51:03;94000.09;;;1.23;56.42
49393;BME280;35268;42.642;23.308;2023-03-14T03:53:29;94008.75;;;1.24;56.83
49393;BME280;35268;42.642;23.308;2023-03-14T03:55:54;94019.78;;;1.26;56.25
49393;BME280;35268;42.642;23.308;2023-03-14T03:58:20;94021.09;;;1.23;55.54
49393;BME280;35268;42.642;23.308;2023-03-14T04:00:45;94008.72;;;1.18;55.77
49393;BME280;35268;42.642;23.308;2023-03-14T04:03:11;94019.97;;;1.14;56.03
49393;BME280;35268;42.642;23.308;2023-03-14T04:05:36;94012.91;;;1.14;56.37
49393;BME280;35268;42.642;23.308;2023-03-14T04:08:02;94009.47;;;1.14;56.82
49393;BME280;35268;42.642;23.308;2023-03-14T04:10:29;94007.59;;;1.09;57.04
49393;BME280;35268;42.642;23.308;2023-03-14T04:12:55;94005.22;;;1.08;57.39
49393;BME280;35268;42.642;23.308;2023-03-14T04:15:20;94005.47;;;1.06;58.01
49393;BME280;35268;42.642;23.308;2023-03-14T04:17:45;93998.94;;;1.09;58.34
49393;BME280;35268;42.642;23.308;2023-03-14T04:20:11;94002.03;;;1.06;58.22
49393;BME280;35268;42.642;23.308;2023-03-14T04:22:38;93994.13;;;1.00;58.14
49393;BME280;35268;42.642;23.308;2023-03-14T04:25:04;94003.31;;;0.98;58.42
49393;BME280;35268;42.642;23.308;2023-03-14T04:27:29;93990.66;;;0.95;58.61
49393;BME280;35268;42.642;23.308;2023-03-14T04:29:55;93981.72;;;0.91;58.49
49393;BME280;35268;42.642;23.308;2023-03-14T04:32:20;93975.69;;;0.90;58.60
49393;BME280;35268;42.642;23.308;2023-03-14T04:34:46;93977.22;;;0.86;59.01
49393;BME280;35268;42.642;23.308;2023-03-14T04:37:11;93973.81;;;0.86;59.30
49393;BME280;35268;42.642;23.308;2023-03-14T04:39:37;93974.59;;;0.86;59.58
49393;BME280;35268;42.642;23.308;2023-03-14T04:42:02;93967.47;;;0.82;59.57
49393;BME280;35268;42.642;23.308;2023-03-14T04:44:28;93959.31;;;0.78;59.88
49393;BME280;35268;42.642;23.308;2023-03-14T04:46:53;93958.75;;;0.76;60.08
49393;BME280;35268;42.642;23.308;2023-03-14T04:49:19;93967.47;;;0.82;60.20
49393;BME280;35268;42.642;23.308;2023-03-14T04:51:45;93963.50;;;0.79;60.44
49393;BME280;35268;42.642;23.308;2023-03-14T04:54:10;93955.63;;;0.79;60.23
49393;BME280;35268;42.642;23.308;2023-03-14T04:56:36;93951.72;;;0.82;60.29
49393;BME280;35268;42.642;23.308;2023-03-14T04:59:02;93952.28;;;0.84;60.05
49393;BME280;35268;42.642;23.308;2023-03-14T05:01:28;93952.50;;;0.82;60.22
49393;BME280;35268;42.642;23.308;2023-03-14T05:03:53;93960.41;;;0.87;60.32
49393;BME280;35268;42.642;23.308;2023-03-14T05:06:19;93955.75;;;0.94;60.12
49393;BME280;35268;42.642;23.308;2023-03-14T05:08:44;93956.06;;;0.98;60.22
49393;BME280;35268;42.642;23.308;2023-03-14T05:11:11;93959.97;;;0.95;60.49
49393;BME280;35268;42.642;23.308;2023-03-14T05:13:37;93955.25;;;0.97;60.63
49393;BME280;35268;42.642;23.308;2023-03-14T05:16:07;93954.75;;;1.00;60.58
49393;BME280;35268;42.642;23.308;2023-03-14T05:18:33;93951.13;;;1.07;60.78
49393;BME280;35268;42.642;23.308;2023-03-14T05:20:58;93948.00;;;1.10;60.58
49393;BME280;35268;42.642;23.308;2023-03-14T05:23:24;93950.13;;;1.13;60.79
49393;BME280;35268;42.642;23.308;2023-03-14T05:25:49;93957.84;;;1.25;59.43
49393;BME280;35268;42.642;23.308;2023-03-14T05:28:14;93954.75;;;1.33;58.88
49393;BME280;35268;42.642;23.308;2023-03-14T05:30:40;93946.09;;;1.37;58.44
49393;BME280;35268;42.642;23.308;2023-03-14T05:33:05;93939.59;;;1.45;58.09
49393;BME280;35268;42.642;23.308;2023-03-14T05:35:31;93950.16;;;1.55;58.37
49393;BME280;35268;42.642;23.308;2023-03-14T05:37:56;93948.34;;;1.66;58.02
49393;BME280;35268;42.642;23.308;2023-03-14T05:40:22;93950.75;;;1.73;57.86
49393;BME280;35268;42.642;23.308;2023-03-14T05:42:48;93947.91;;;1.85;57.26
49393;BME280;35268;42.642;23.308;2023-03-14T05:45:13;93940.63;;;1.97;56.88
49393;BME280;35268;42.642;23.308;2023-03-14T05:47:38;93954.56;;;2.03;56.39
49393;BME280;35268;42.642;23.308;2023-03-14T05:50:04;93955.69;;;2.17;55.34
49393;BME280;35268;42.642;23.308;2023-03-14T05:52:30;93953.63;;;2.24;54.92
49393;BME280;35268;42.642;23.308;2023-03-14T05:54:55;93960.19;;;2.27;54.83
49393;BME280;35268;42.642;23.308;2023-03-14T05:57:20;93949.41;;;2.33;54.71
49393;BME280;35268;42.642;23.308;2023-03-14T05:59:46;93953.94;;;2.43;54.05
49393;BME280;35268;42.642;23.308;2023-03-14T06:02:11;93949.72;;;2.47;54.15
49393;BME280;35268;42.642;23.308;2023-03-14T06:04:37;93946.31;;;2.52;54.55
49393;BME280;35268;42.642;23.308;2023-03-14T06:07:02;93952.09;;;2.54;54.47
49393;BME280;35268;42.642;23.308;2023-03-14T06:09:27;93946.31;;;2.62;54.27
49393;BME280;35268;42.642;23.308;2023-03-14T06:11:53;93957.38;;;2.64;54.18
49393;BME280;35268;42.642;23.308;2023-03-14T06:14:18;93945.03;;;2.65;54.33
49393;BME280;35268;42.642;23.308;2023-03-14T06:16:44;93938.19;;;2.64;54.37
49393;BME280;35268;42.642;23.308;2023-03-14T06:19:10;93939.22;;;2.68;54.61
49393;BME280;35268;42.642;23.308;2023-03-14T06:21:35;93942.91;;;2.72;54.02
49393;BME280;35268;42.642;23.308;2023-03-14T06:24:01;93943.47;;;2.79;53.94
49393;BME280;35268;42.642;23.308;2023-03-14T06:26:26;93946.63;;;2.81;53.81
49393;BME280;35268;42.642;23.308;2023-03-14T06:28:51;93952.44;;;2.83;53.54
49393;BME280;35268;42.642;23.308;2023-03-14T06:31:18;93954.78;;;2.90;53.57
49393;BME280;35268;42.642;23.308;2023-03-14T06:33:43;93961.38;;;3.03;52.90
49393;BME280;35268;42.642;23.308;2023-03-14T06:36:09;93965.31;;;3.15;52.26
49393;BME280;35268;42.642;23.308;2023-03-14T06:38:35;93950.84;;;3.18;51.66
49393;BME280;35268;42.642;23.308;2023-03-14T06:41:07;93950.31;;;3.21;51.63
49393;BME280;35268;42.642;23.308;2023-03-14T06:43:33;93946.88;;;3.15;51.81
49393;BME280;35268;42.642;23.308;2023-03-14T06:45:58;93942.13;;;3.33;51.83
49393;BME280;35268;42.642;23.308;2023-03-14T06:48:23;93936.59;;;3.45;51.16
49393;BME280;35268;42.642;23.308;2023-03-14T06:50:49;93929.72;;;3.54;50.75
49393;BME280;35268;42.642;23.308;2023-03-14T06:53:14;93917.06;;;3.61;50.39
49393;BME280;35268;42.642;23.308;2023-03-14T06:55:40;93914.66;;;3.70;50.69
49393;BME280;35268;42.642;23.308;2023-03-14T06:58:05;93921.19;;;3.82;50.84
49393;BME280;35268;42.642;23.308;2023-03-14T07:00:33;93923.78;;;3.98;50.81
49393;BME280;35268;42.642;23.308;2023-03-14T07:02:59;93913.72;;;4.10;50.33
49393;BME280;35268;42.642;23.308;2023-03-14T07:05:25;93915.53;;;4.20;50.36
49393;BME280;35268;42.642;23.308;2023-03-14T07:07:50;93912.56;;;4.32;49.97
49393;BME280;35268;42.642;23.308;2023-03-14T07:10:16;93909.31;;;4.45;49.78
49393;BME280;35268;42.642;23.308;2023-03-14T07:12:41;93904.03;;;4.50;49.59
49393;BME280;35268;42.642;23.308;2023-03-14T07:15:07;93894.69;;;4.63;49.27
49393;BME280;35268;42.642;23.308;2023-03-14T07:17:33;93897.25;;;4.73;49.21
49393;BME280;35268;42.642;23.308;2023-03-14T07:19:58;93904.34;;;4.78;49.56
49393;BME280;35268;42.642;23.308;2023-03-14T07:22:24;93914.06;;;4.88;49.93
49393;BME280;35268;42.642;23.308;2023-03-14T07:24:50;93905.91;;;4.84;49.50
49393;BME280;35268;42.642;23.308;2023-03-14T07:27:15;93906.41;;;4.86;48.84
49393;BME280;35268;42.642;23.308;2023-03-14T07:29:41;93911.34;;;4.98;48.32
49393;BME280;35268;42.642;23.308;2023-03-14T07:32:06;93911.00;;;5.10;47.84
49393;BME280;35268;42.642;23.308;2023-03-14T07:34:33;93895.06;;;5.15;47.92
49393;BME280;35268;42.642;23.308;2023-03-14T07:36:59;93894.72;;;5.27;47.31
49393;BME280;35268;42.642;23.308;2023-03-14T07:39:24;93889.44;;;5.27;47.14
49393;BME280;35268;42.642;23.308;2023-03-14T07:41:50;93887.09;;;5.25;47.03
49393;BME280;35268;42.642;23.308;2023-03-14T07:44:15;93882.25;;;5.32;47.41
49393;BME280;35268;42.642;23.308;2023-03-14T07:46:41;93887.16;;;5.44;47.37
49393;BME280;35268;42.642;23.308;2023-03-14T07:49:06;93878.84;;;5.56;47.06
49393;BME280;35268;42.642;23.308;2023-03-14T07:51:32;93880.81;;;5.69;46.91
49393;BME280;35268;42.642;23.308;2023-03-14T07:53:57;93876.25;;;5.75;45.77
49393;BME280;35268;42.642;23.308;2023-03-14T07:56:23;93878.84;;;5.80;45.76
49393;BME280;35268;42.642;23.308;2023-03-14T07:58:48;93876.41;;;5.83;44.87
49393;BME280;35268;42.642;23.308;2023-03-14T08:01:14;93885.88;;;5.90;44.91
49393;BME280;35268;42.642;23.308;2023-03-14T08:03:39;93886.44;;;5.87;44.70
49393;BME280;35268;42.642;23.308;2023-03-14T08:06:05;93881.16;;;5.87;44.66
49393;BME280;35268;42.642;23.308;2023-03-14T08:08:30;93872.13;;;5.88;44.13
49393;BME280;35268;42.642;23.308;2023-03-14T08:10:55;93878.50;;;5.87;44.59
49393;BME280;35268;42.642;23.308;2023-03-14T08:13:21;93872.13;;;5.88;44.89
49393;BME280;35268;42.642;23.308;2023-03-14T08:15:48;93878.69;;;5.95;44.17
49393;BME280;35268;42.642;23.308;2023-03-14T08:18:14;93875.78;;;5.97;43.96
49393;BME280;35268;42.642;23.308;2023-03-14T08:20:40;93874.91;;;6.01;43.80
49393;BME280;35268;42.642;23.308;2023-03-14T08:23:05;93880.94;;;6.07;43.73
49393;BME280;35268;42.642;23.308;2023-03-14T08:25:31;93875.56;;;6.12;43.68
49393;BME280;35268;42.642;23.308;2023-03-14T08:27:57;93878.72;;;6.14;43.45
49393;BME280;35268;42.642;23.308;2023-03-14T08:30:23;93875.53;;;6.17;43.49
49393;BME280;35268;42.642;23.308;2023-03-14T08:32:49;93871.22;;;6.21;42.38
49393;BME280;35268;42.642;23.308;2023-03-14T08:35:15;93871.66;;;6.29;42.56
49393;BME280;35268;42.642;23.308;2023-03-14T08:37:40;93857.72;;;6.42;42.68
49393;BME280;35268;42.642;23.308;2023-03-14T08:40:07;93864.44;;;6.53;42.71
49393;BME280;35268;42.642;23.308;2023-03-14T08:42:38;93860.00;;;6.68;42.20
49393;BME280;35268;42.642;23.308;2023-03-14T08:45:05;93858.47;;;6.80;42.28
49393;BME280;35268;42.642;23.308;2023-03-14T08:47:30;93853.41;;;6.98;42.18
49393;BME280;35268;42.642;23.308;2023-03-14T08:49:56;93852.59;;;7.16;41.11
49393;BME280;35268;42.642;23.308;2023-03-14T08:52:21;93838.47;;;7.21;40.26
49393;BME280;35268;42.642;23.308;2023-03-14T08:54:47;93838.78;;;7.33;39.80
49393;BME280;35268;42.642;23.308;2023-03-14T08:57:12;93830.22;;;7.36;39.83
49393;BME280;35268;42.642;23.308;2023-03-14T08:59:38;93828.69;;;7.49;38.77
49393;BME280;35268;42.642;23.308;2023-03-14T09:02:04;93826.63;;;7.60;38.15
49393;BME280;35268;42.642;23.308;2023-03-14T09:04:31;93825.34;;;7.71;38.14
49393;BME280;35268;42.642;23.308;2023-03-14T09:06:57;93811.56;;;7.69;38.22
49393;BME280;35268;42.642;23.308;2023-03-14T09:09:24;93813.25;;;7.93;37.84
49393;BME280;35268;42.642;23.308;2023-03-14T09:11:49;93811.25;;;8.12;37.11
49393;BME280;35268;42.642;23.308;2023-03-14T09:14:14;93802.03;;;8.32;36.08
49393;BME280;35268;42.642;23.308;2023-03-14T09:16:40;93797.97;;;8.49;36.51
49393;BME280;35268;42.642;23.308;2023-03-14T09:19:05;93800.19;;;8.69;37.01
49393;BME280;35268;42.642;23.308;2023-03-14T09:21:31;93785.31;;;8.91;36.98
49393;BME280;35268;42.642;23.308;2023-03-14T09:23:56;93781.34;;;9.11;37.22
49393;BME280;35268;42.642;23.308;2023-03-14T09:26:22;93776.63;;;9.30;36.69
49393;BME280;35268;42.642;23.308;2023-03-14T09:28:47;93774.00;;;9.48;36.42
49393;BME280;35268;42.642;23.308;2023-03-14T09:31:14;93775.16;;;9.64;35.90
49393;BME280;35268;42.642;23.308;2023-03-14T09:33:39;93762.69;;;9.82;35.69
49393;BME280;35268;42.642;23.308;2023-03-14T09:36:05;93766.16;;;10.00;35.69
49393;BME280;35268;42.642;23.308;2023-03-14T09:38:31;93755.38;;;10.14;35.81
49393;BME280;35268;42.642;23.308;2023-03-14T09:40:58;93748.78;;;10.29;35.08
49393;BME280;35268;42.642;23.308;2023-03-14T09:43:26;93749.75;;;10.33;34.21
49393;BME280;35268;42.642;23.308;2023-03-14T09:45:54;93743.47;;;10.46;34.23
49393;BME280;35268;42.642;23.308;2023-03-14T09:48:27;93737.06;;;10.64;33.84
49393;BME280;35268;42.642;23.308;2023-03-14T09:50:54;93735.78;;;10.62;33.53
49393;BME280;35268;42.642;23.308;2023-03-14T09:53:24;93728.28;;;10.55;33.89
49393;BME280;35268;42.642;23.308;2023-03-14T09:55:50;93726.38;;;10.56;34.03
49393;BME280;35268;42.642;23.308;2023-03-14T09:58:22;93715.09;;;10.68;33.80
49393;BME280;35268;42.642;23.308;2023-03-14T10:00:52;93722.44;;;10.79;33.62
49393;BME280;35268;42.642;23.308;2023-03-14T10:03:24;93712.81;;;10.96;33.77
49393;BME280;35268;42.642;23.308;2023-03-14T10:05:50;93708.03;;;11.19;33.95
49393;BME280;35268;42.642;23.308;2023-03-14T10:08:16;93706.69;;;11.42;33.36
49393;BME280;35268;42.642;23.308;2023-03-14T10:10:41;93702.97;;;11.64;33.30
49393;BME280;35268;42.642;23.308;2023-03-14T10:13:24;93694.22;;;11.76;32.74
49393;BME280;35268;42.642;23.308;2023-03-14T10:15:54;93688.81;;;11.94;33.08
49393;BME280;35268;42.642;23.308;2023-03-14T10:18:22;93681.66;;;12.07;32.66
49393;BME280;35268;42.642;23.308;2023-03-14T10:20:51;93679.63;;;12.24;32.61
49393;BME280;35268;42.642;23.308;2023-03-14T10:23:28;93676.13;;;12.45;31.88
49393;BME280;35268;42.642;23.308;2023-03-14T10:26:03;93660.13;;;12.57;31.51
49393;BME280;35268;42.642;23.308;2023-03-14T10:28:47;93656.84;;;12.73;31.38
49393;BME280;35268;42.642;23.308;2023-03-14T10:31:14;93649.75;;;12.89;31.43
49393;BME280;35268;42.642;23.308;2023-03-14T10:33:40;93650.66;;;13.05;30.81
49393;BME280;35268;42.642;23.308;2023-03-14T10:36:14;93644.88;;;13.16;30.70
49393;BME280;35268;42.642;23.308;2023-03-14T10:38:41;93635.63;;;13.25;30.96
49393;BME280;35268;42.642;23.308;2023-03-14T10:41:19;93621.69;;;13.20;30.06
49393;BME280;35268;42.642;23.308;2023-03-14T10:43:57;93621.94;;;13.39;31.13
49393;BME280;35268;42.642;23.308;2023-03-14T10:46:25;93617.78;;;13.54;30.51
49393;BME280;35268;42.642;23.308;2023-03-14T10:48:54;93620.31;;;13.63;30.09
49393;BME280;35268;42.642;23.308;2023-03-14T10:51:25;93605.56;;;13.81;30.19
49393;BME280;35268;42.642;23.308;2023-03-14T10:53:59;93592.13;;;13.94;29.97
49393;BME280;35268;42.642;23.308;2023-03-14T10:56:26;93589.84;;;14.08;30.11
49393;BME280;35268;42.642;23.308;2023-03-14T10:58:55;93582.66;;;14.12;29.61
49393;BME280;35268;42.642;23.308;2023-03-14T11:01:59;93581.06;;;14.23;29.62
49393;BME280;35268;42.642;23.308;2023-03-14T11:08:11;93563.81;;;14.53;29.97
49393;BME280;35268;42.642;23.308;2023-03-14T11:10:43;93553.31;;;14.60;29.66
49393;BME280;35268;42.642;23.308;2023-03-14T11:16:03;93541.88;;;14.79;29.70
49393;BME280;35268;42.642;23.308;2023-03-14T11:18:53;93539.28;;;14.82;29.51
49393;BME280;35268;42.642;23.308;2023-03-14T11:22:26;93527.94;;;14.89;29.83
49393;BME280;35268;42.642;23.308;2023-03-14T11:27:00;93513.03;;;14.92;29.91
49393;BME280;35268;42.642;23.308;2023-03-14T11:35:55;93492.16;;;15.17;30.11
49393;BME280;35268;42.642;23.308;2023-03-14T11:39:02;93493.72;;;15.37;29.79
49393;BME280;35268;42.642;23.308;2023-03-14T11:41:43;93486.09;;;15.39;28.48
49393;BME280;35268;42.642;23.308;2023-03-14T11:44:18;93488.56;;;15.48;28.70
49393;BME280;35268;42.642;23.308;2023-03-14T11:47:01;93475.78;;;15.61;29.25
49393;BME280;35268;42.642;23.308;2023-03-14T11:49:45;93464.03;;;15.69;27.97
49393;BME280;35268;42.642;23.308;2023-03-14T11:54:51;93463.34;;;15.92;27.95
49393;BME280;35268;42.642;23.308;2023-03-14T11:57:21;93458.09;;;15.99;27.79
49393;BME280;35268;42.642;23.308;2023-03-14T12:02:44;93452.03;;;15.82;27.47
49393;BME280;35268;42.642;23.308;2023-03-14T12:13:15;93430.09;;;16.23;27.18
49393;BME280;35268;42.642;23.308;2023-03-14T12:16:05;93420.75;;;16.40;26.21
49393;BME280;35268;42.642;23.308;2023-03-14T12:18:38;93411.47;;;16.60;27.28
49393;BME280;35268;42.642;23.308;2023-03-14T12:21:07;93405.44;;;16.67;26.36
49393;BME280;35268;42.642;23.308;2023-03-14T12:23:55;93395.75;;;16.89;25.73
49393;BME280;35268;42.642;23.308;2023-03-14T12:26:27;93391.34;;;17.04;25.41
49393;BME280;35268;42.642;23.308;2023-03-14T12:31:44;93388.03;;;17.48;25.29
49393;BME280;35268;42.642;23.308;2023-03-14T12:36:53;93368.28;;;17.74;24.84
49393;BME280;35268;42.642;23.308;2023-03-14T12:50:14;93354.81;;;18.15;23.53
49393;BME280;35268;42.642;23.308;2023-03-14T12:52:50;93353.78;;;18.31;23.84
49393;BME280;35268;42.642;23.308;2023-03-14T12:55:24;93343.94;;;18.53;23.62
49393;BME280;35268;42.642;23.308;2023-03-14T12:58:18;93340.63;;;18.77;23.53
49393;BME280;35268;42.642;23.308;2023-03-14T13:00:54;93333.81;;;18.98;23.07
49393;BME280;35268;42.642;23.308;2023-03-14T13:03:23;93333.50;;;19.14;22.48
49393;BME280;35268;42.642;23.308;2023-03-14T13:06:00;93323.13;;;19.37;22.75
49393;BME280;35268;42.642;23.308;2023-03-14T13:08:40;93323.19;;;19.52;22.14
49393;BME280;35268;42.642;23.308;2023-03-14T13:11:12;93318.56;;;19.56;21.69
49393;BME280;35268;42.642;23.308;2023-03-14T13:13:48;93312.41;;;19.70;21.53
49393;BME280;35268;42.642;23.308;2023-03-14T13:16:20;93315.94;;;19.84;21.40
49393;BME280;35268;42.642;23.308;2023-03-14T13:18:50;93307.44;;;20.04;21.45
49393;BME280;35268;42.642;23.308;2023-03-14T13:21:27;93308.63;;;20.17;21.42
49393;BME280;35268;42.642;23.308;2023-03-14T13:26:33;93289.28;;;20.40;20.91
49393;BME280;35268;42.642;23.308;2023-03-14T13:29:00;93280.34;;;20.61;20.46
49393;BME280;35268;42.642;23.308;2023-03-14T13:31:33;93286.53;;;20.76;20.67
49393;BME280;35268;42.642;23.308;2023-03-14T13:34:01;93282.22;;;20.93;20.66
49393;BME280;35268;42.642;23.308;2023-03-14T13:36:28;93267.00;;;21.17;20.54
49393;BME280;35268;42.642;23.308;2023-03-14T13:38:58;93258.44;;;21.33;19.52
49393;BME280;35268;42.642;23.308;2023-03-14T13:41:24;93253.28;;;21.53;19.58
49393;BME280;35268;42.642;23.308;2023-03-14T13:43:51;93248.44;;;21.82;19.44
49393;BME280;35268;42.642;23.308;2023-03-14T13:46:20;93240.91;;;22.04;18.80
49393;BME280;35268;42.642;23.308;2023-03-14T13:48:52;93241.09;;;22.28;18.61
49393;BME280;35268;42.642;23.308;2023-03-14T13:51:19;93229.03;;;22.71;17.70
49393;BME280;35268;42.642;23.308;2023-03-14T13:53:53;93231.00;;;23.01;17.36
49393;BME280;35268;42.642;23.308;2023-03-14T13:56:22;93223.69;;;23.29;16.79
49393;BME280;35268;42.642;23.308;2023-03-14T13:58:48;93213.81;;;23.69;16.51